Time;durP1;ratioP1;P1;durP2;ratioP2;P2;SDS_P1;SDS_P2;PMS_P1;PMS_P2;Temp;Humidity;BMP_temperature;BMP_pressure;BME280_temperature;BME280_humidity;BME280_pressure;Samples;Min_cycle;Max_cycle;Signal;HPM_P1;HPM_P2
2022/06/30 00:00:58;;;;;;;25.00;22.40;;;22.20;99.90;;;;;;5055027;28;20016;-77
2022/06/30 00:03:24;;;;;;;26.15;23.20;;;22.20;99.90;;;;;;5073158;28;20390;-78
2022/06/30 00:05:49;;;;;;;25.38;22.67;;;22.20;99.90;;;;;;5066977;28;20547;-71
2022/06/30 00:08:15;;;;;;;29.25;23.30;;;22.20;99.90;;;;;;5053042;28;20088;-71
2022/06/30 00:10:41;;;;;;;27.77;23.33;;;22.10;99.90;;;;;;5050791;28;20107;-71
2022/06/30 00:13:07;;;;;;;25.80;21.77;;;22.10;99.90;;;;;;5073025;28;20017;-78
2022/06/30 00:15:35;;;;;;;29.33;23.83;;;22.10;99.90;;;;;;5072939;28;20028;-70
2022/06/30 00:18:01;;;;;;;25.38;22.10;;;22.10;99.90;;;;;;5076318;28;20041;-78
2022/06/30 00:20:27;;;;;;;26.17;23.48;;;22.10;99.90;;;;;;5076989;28;20023;-77
2022/06/30 00:22:52;;;;;;;27.05;23.48;;;22.10;99.90;;;;;;5076755;28;20044;-71
2022/06/30 00:25:18;;;;;;;26.10;23.33;;;22.10;99.90;;;;;;5076920;28;20095;-78
2022/06/30 00:27:44;;;;;;;24.23;21.40;;;22.10;99.90;;;;;;5058724;28;20078;-78
2022/06/30 00:30:10;;;;;;;27.98;23.60;;;22.10;99.90;;;;;;5076831;28;20017;-78
2022/06/30 00:32:36;;;;;;;26.30;23.52;;;22.10;99.90;;;;;;5058712;28;20047;-72
2022/06/30 00:35:03;;;;;;;26.23;23.50;;;22.10;99.90;;;;;;5076734;28;20092;-78
2022/06/30 00:37:29;;;;;;;26.08;23.17;;;22.10;99.90;;;;;;5076423;28;20020;-78
2022/06/30 00:39:54;;;;;;;27.08;24.23;;;22.00;99.90;;;;;;5058679;28;20441;-70
2022/06/30 00:42:21;;;;;;;27.33;24.45;;;21.90;99.90;;;;;;5076590;28;20029;-78
2022/06/30 00:44:47;;;;;;;24.50;21.90;;;21.90;99.90;;;;;;5076575;28;20085;-70
2022/06/30 00:47:12;;;;;;;26.48;22.42;;;21.90;99.90;;;;;;5076435;28;20025;-71
2022/06/30 00:49:38;;;;;;;25.63;23.00;;;21.90;99.90;;;;;;5076449;28;20110;-71
2022/06/30 00:52:08;;;;;;;25.38;22.00;;;22.00;99.90;;;;;;5076294;28;20021;-71
2022/06/30 00:54:34;;;;;;;27.45;23.40;;;22.00;99.90;;;;;;5076332;28;20052;-78
2022/06/30 00:57:00;;;;;;;27.80;24.33;;;22.00;99.90;;;;;;5076252;28;20013;-71
2022/06/30 00:59:27;;;;;;;27.23;23.38;;;22.00;99.90;;;;;;5076276;28;20036;-78
2022/06/30 01:01:54;;;;;;;29.15;23.85;;;21.90;99.90;;;;;;5076219;28;20482;-78
2022/06/30 01:04:20;;;;;;;26.58;23.60;;;21.90;99.90;;;;;;5070552;28;20021;-78
2022/06/30 01:06:46;;;;;;;25.52;22.88;;;21.90;99.90;;;;;;5069527;28;20068;-77
2022/06/30 01:12:41;;;;;;;25.70;22.33;;;21.80;99.90;;;;;;5072065;28;20028;-78
2022/06/30 01:14:43;;;;;;;26.77;24.02;;;21.80;99.90;;;;;;5056179;28;20103;-77
2022/06/30 01:17:10;;;;;;;27.95;25.02;;;21.80;99.90;;;;;;5056026;28;20115;-78
2022/06/30 01:19:36;;;;;;;26.35;23.55;;;21.70;99.90;;;;;;5055852;28;20095;-77
2022/06/30 01:22:03;;;;;;;35.58;27.45;;;21.70;99.90;;;;;;5037773;28;20025;-71
2022/06/30 01:24:29;;;;;;;29.85;25.45;;;21.70;99.90;;;;;;5055666;28;20029;-77
2022/06/30 01:26:57;;;;;;;27.42;24.48;;;21.60;99.90;;;;;;5055739;28;20070;-78
2022/06/30 01:29:23;;;;;;;28.88;24.85;;;21.60;99.90;;;;;;5055594;28;20032;-71
2022/06/30 01:31:50;;;;;;;28.08;24.80;;;21.50;99.90;;;;;;5055490;28;20060;-78
2022/06/30 01:34:15;;;;;;;31.55;26.55;;;21.40;99.90;;;;;;5055606;28;20440;-70
2022/06/30 01:36:42;;;;;;;32.88;25.63;;;21.40;99.90;;;;;;5055324;28;20021;-72
2022/06/30 01:39:08;;;;;;;28.23;25.23;;;21.30;99.90;;;;;;5055542;28;20119;-72
2022/06/30 01:41:33;;;;;;;28.10;25.15;;;21.30;99.90;;;;;;5055410;28;20096;-78
2022/06/30 01:43:59;;;;;;;31.38;25.65;;;21.30;99.90;;;;;;5037593;28;20020;-71
2022/06/30 01:46:25;;;;;;;31.10;26.25;;;21.20;99.90;;;;;;5055507;28;20037;-70
2022/06/30 01:48:50;;;;;;;27.38;24.52;;;21.20;99.90;;;;;;5037401;28;20053;-78
2022/06/30 01:51:16;;;;;;;31.00;26.05;;;21.20;99.90;;;;;;5055381;28;20052;-78
2022/06/30 01:53:42;;;;;;;30.92;27.63;;;21.20;99.90;;;;;;5037343;28;20024;-78
2022/06/30 01:56:07;;;;;;;32.33;26.70;;;21.20;99.90;;;;;;5055338;28;20031;-70
2022/06/30 01:58:33;;;;;;;29.42;26.23;;;21.20;99.90;;;;;;5054913;28;20056;-72
2022/06/30 02:00:59;;;;;;;31.90;25.73;;;21.20;99.90;;;;;;5036680;28;20391;-71
2022/06/30 02:03:24;;;;;;;33.55;26.95;;;21.20;99.90;;;;;;5055132;28;20114;-71
2022/06/30 02:05:50;;;;;;;29.88;25.50;;;21.20;99.90;;;;;;5061288;28;20047;-70
2022/06/30 02:08:16;;;;;;;30.27;26.35;;;21.20;99.90;;;;;;5056978;28;20056;-71
2022/06/30 02:10:41;;;;;;;33.58;28.17;;;21.20;99.90;;;;;;5040325;28;20544;-71
2022/06/30 02:13:07;;;;;;;34.10;27.70;;;21.20;99.90;;;;;;5054730;28;20025;-77
2022/06/30 02:15:33;;;;;;;31.10;27.10;;;21.20;99.90;;;;;;5054936;28;20024;-77
2022/06/30 02:18:01;;;;;;;35.22;28.50;;;21.20;99.90;;;;;;5054628;28;20037;-78
2022/06/30 02:20:27;;;;;;;33.80;28.00;;;21.30;99.90;;;;;;5054803;28;20036;-78
2022/06/30 02:22:59;;;;;;;37.28;29.20;;;21.30;99.90;;;;;;5054646;28;20025;-71
2022/06/30 02:25:26;;;;;;;31.17;27.10;;;21.20;99.90;;;;;;5054613;28;20029;-77
2022/06/30 02:27:52;;;;;;;29.90;26.40;;;21.30;99.90;;;;;;5054414;28;20021;-71
2022/06/30 02:30:18;;;;;;;30.45;27.33;;;21.20;99.90;;;;;;5036708;28;20111;-77
2022/06/30 02:32:45;;;;;;;29.80;26.52;;;21.20;99.90;;;;;;5036612;28;20078;-78
2022/06/30 02:35:11;;;;;;;30.50;27.13;;;21.20;99.90;;;;;;5036564;28;20053;-73
2022/06/30 02:37:37;;;;;;;29.45;26.10;;;21.10;99.90;;;;;;5054331;28;20068;-72
2022/06/30 02:40:03;;;;;;;34.28;28.00;;;21.10;99.90;;;;;;5053889;28;20033;-70
2022/06/30 02:42:29;;;;;;;31.85;27.17;;;21.10;99.90;;;;;;5054246;28;20382;-71
2022/06/30 02:44:55;;;;;;;31.45;27.20;;;21.10;99.90;;;;;;5054323;28;20040;-78
2022/06/30 02:47:20;;;;;;;31.80;28.20;;;21.00;99.90;;;;;;5054343;28;20363;-70
2022/06/30 02:49:46;;;;;;;33.35;28.85;;;21.00;99.90;;;;;;5054024;28;20162;-71
2022/06/30 02:52:12;;;;;;;34.08;28.50;;;21.00;99.90;;;;;;5054207;28;20383;-77
2022/06/30 02:54:38;;;;;;;33.05;28.52;;;21.00;99.90;;;;;;5053982;28;20029;-71
2022/06/30 02:57:04;;;;;;;31.88;27.95;;;21.00;99.90;;;;;;5054098;28;20055;-77
2022/06/30 02:59:30;;;;;;;32.90;27.05;;;21.00;99.90;;;;;;5035753;28;20402;-70
2022/06/30 03:01:55;;;;;;;32.47;28.23;;;21.00;99.90;;;;;;5054067;28;20037;-77
2022/06/30 03:04:21;;;;;;;31.05;27.77;;;21.00;99.90;;;;;;5053692;28;20028;-70
2022/06/30 03:06:47;;;;;;;34.65;28.83;;;21.00;99.90;;;;;;5050490;28;20044;-78
2022/06/30 03:09:13;;;;;;;34.25;28.92;;;21.00;99.90;;;;;;5068894;28;20021;-72
2022/06/30 03:11:39;;;;;;;35.92;28.50;;;21.00;99.90;;;;;;5053793;28;20029;-78
2022/06/30 03:14:05;;;;;;;31.73;28.30;;;21.00;99.90;;;;;;5035780;28;20360;-71
2022/06/30 03:16:31;;;;;;;31.35;28.10;;;21.00;99.90;;;;;;5035666;28;20032;-71
2022/06/30 03:18:56;;;;;;;33.95;28.40;;;21.00;99.90;;;;;;5053401;28;20036;-71
2022/06/30 03:21:22;;;;;;;32.45;28.95;;;21.00;99.90;;;;;;5035717;28;20025;-77
2022/06/30 03:23:48;;;;;;;31.67;28.30;;;21.00;99.90;;;;;;5035554;28;20115;-71
2022/06/30 03:26:14;;;;;;;32.75;28.42;;;21.10;99.90;;;;;;5053450;28;20025;-70
2022/06/30 03:28:40;;;;;;;33.90;30.38;;;21.20;99.90;;;;;;5035524;28;20119;-77
2022/06/30 03:31:05;;;;;;;30.15;26.80;;;21.20;99.90;;;;;;5053388;28;20025;-77
2022/06/30 03:33:31;;;;;;;28.58;25.55;;;21.20;99.90;;;;;;5053282;28;20062;-77
2022/06/30 03:35:57;;;;;;;30.05;26.67;;;21.30;99.90;;;;;;5053382;28;20056;-77
2022/06/30 03:38:23;;;;;;;32.92;27.23;;;21.40;99.90;;;;;;5053170;28;20479;-77
2022/06/30 03:40:49;;;;;;;30.55;25.67;;;21.50;99.90;;;;;;5053396;28;20021;-77
2022/06/30 03:43:16;;;;;;;29.63;26.33;;;21.50;99.90;;;;;;5053235;28;20031;-77
2022/06/30 03:45:42;;;;;;;29.85;25.17;;;21.60;99.90;;;;;;5053105;28;20448;-77
2022/06/30 03:48:08;;;;;;;27.27;24.38;;;21.80;99.90;;;;;;5035196;28;20095;-77
2022/06/30 03:50:34;;;;;;;28.70;25.60;;;21.90;99.90;;;;;;5052651;28;20021;-77
2022/06/30 03:53:01;;;;;;;26.85;23.75;;;22.10;99.90;;;;;;5052769;28;20079;-78
2022/06/30 03:55:28;;;;;;;29.80;26.10;;;22.20;99.90;;;;;;5053082;28;20112;-77
2022/06/30 03:57:54;;;;;;;25.33;22.73;;;22.30;99.90;;;;;;5053035;28;20040;-70
2022/06/30 04:00:20;;;;;;;27.73;24.92;;;22.50;99.90;;;;;;5052964;28;20395;-78
2022/06/30 04:02:46;;;;;;;26.25;23.45;;;22.60;99.90;;;;;;5053176;28;20060;-77
2022/06/30 04:05:12;;;;;;;27.40;23.75;;;22.70;99.90;;;;;;5054585;28;20049;-77
2022/06/30 04:07:42;;;;;;;27.45;24.55;;;22.80;99.90;;;;;;5054998;28;20024;-78
2022/06/30 04:10:09;;;;;;;26.73;23.85;;;22.90;99.90;;;;;;5042307;28;20021;-71
2022/06/30 04:12:35;;;;;;;26.98;23.52;;;22.80;99.90;;;;;;5053010;28;20037;-71
2022/06/30 04:15:01;;;;;;;27.48;24.30;;;22.80;99.90;;;;;;5035055;28;20032;-77
2022/06/30 04:17:26;;;;;;;26.80;24.00;;;22.70;99.90;;;;;;5034939;28;20071;-71
2022/06/30 04:19:52;;;;;;;27.60;24.42;;;22.60;99.90;;;;;;5052810;28;20549;-71
2022/06/30 04:22:18;;;;;;;27.10;23.63;;;22.60;99.90;;;;;;5052926;28;20017;-72
2022/06/30 04:24:43;;;;;;;26.58;23.63;;;22.60;99.90;;;;;;5034902;28;20522;-71
2022/06/30 04:27:09;;;;;;;26.30;23.58;;;22.60;99.90;;;;;;5052888;28;20021;-77
2022/06/30 04:29:35;;;;;;;26.58;23.77;;;22.60;99.90;;;;;;5052634;28;20094;-71
2022/06/30 04:34:44;;;;;;;25.05;22.55;;;22.70;99.90;;;;;;5052931;28;20044;-77
2022/06/30 04:37:10;;;;;;;25.50;22.90;;;22.90;99.90;;;;;;5034902;28;20029;-77
2022/06/30 04:39:36;;;;;;;25.30;22.75;;;23.00;99.90;;;;;;5052498;28;20076;-71
2022/06/30 04:42:02;;;;;;;26.95;24.15;;;23.10;99.90;;;;;;5034847;28;20082;-72
2022/06/30 04:44:27;;;;;;;23.83;21.30;;;23.20;99.90;;;;;;5052595;28;20036;-71
2022/06/30 04:46:53;;;;;;;25.20;22.50;;;23.20;99.90;;;;;;5052823;28;20017;-77
2022/06/30 04:49:19;;;;;;;25.77;22.30;;;23.30;99.90;;;;;;5052565;28;20463;-77
2022/06/30 04:51:44;;;;;;;23.75;21.02;;;23.50;99.90;;;;;;5052734;28;20467;-77
2022/06/30 04:54:10;;;;;;;26.83;22.52;;;23.60;99.90;;;;;;5052611;28;20040;-78
2022/06/30 04:56:36;;;;;;;22.75;20.42;;;23.70;99.90;;;;;;5034583;28;20036;-78
2022/06/30 04:59:01;;;;;;;23.35;21.10;;;23.90;99.90;;;;;;5052420;28;20041;-78
2022/06/30 05:01:27;;;;;;;22.60;20.13;;;24.00;99.90;;;;;;5034426;28;20024;-71
2022/06/30 05:03:53;;;;;;;22.98;20.70;;;24.10;99.90;;;;;;5055251;28;20486;-72
2022/06/30 05:06:18;;;;;;;22.40;19.88;;;24.10;99.90;;;;;;5067304;28;20088;-77
2022/06/30 05:08:44;;;;;;;21.08;18.98;;;24.20;99.90;;;;;;5056616;28;20029;-71
2022/06/30 05:11:10;;;;;;;22.73;20.33;;;24.40;99.90;;;;;;5055916;28;20035;-77
2022/06/30 05:13:35;;;;;;;23.10;20.75;;;24.40;99.90;;;;;;5055967;28;20032;-78
2022/06/30 05:16:02;;;;;;;22.02;19.83;;;24.50;99.90;;;;;;5056493;28;20037;-71
2022/06/30 05:18:28;;;;;;;21.77;19.63;;;24.60;99.90;;;;;;5055707;28;20087;-71
2022/06/30 05:20:54;;;;;;;20.05;18.05;;;24.60;99.90;;;;;;5047260;28;20495;-70
2022/06/30 05:23:20;;;;;;;21.50;19.20;;;24.80;99.90;;;;;;5073786;28;20051;-71
2022/06/30 05:28:30;;;;;;;22.23;19.25;;;25.00;99.90;;;;;;5075625;28;20505;-70
2022/06/30 05:30:56;;;;;;;21.20;19.00;;;25.20;99.90;;;;;;5073896;28;20028;-70
2022/06/30 05:33:22;;;;;;;19.92;17.85;;;25.20;99.90;;;;;;5064846;28;20028;-71
2022/06/30 05:35:49;;;;;;;21.00;18.92;;;25.30;99.90;;;;;;5069836;28;20067;-70
2022/06/30 05:38:15;;;;;;;20.63;18.73;;;25.40;98.70;;;;;;5075325;28;20025;-70
2022/06/30 05:40:41;;;;;;;21.77;19.67;;;25.50;98.30;;;;;;5057226;28;20024;-70
2022/06/30 05:43:11;;;;;;;21.80;19.75;;;25.60;99.90;;;;;;5075392;28;20390;-77
2022/06/30 05:45:37;;;;;;;20.40;18.50;;;25.60;94.20;;;;;;5075432;28;20527;-70
2022/06/30 05:48:03;;;;;;;21.50;19.33;;;25.80;94.40;;;;;;5075470;28;20524;-71
2022/06/30 05:50:30;;;;;;;22.20;19.00;;;25.90;91.90;;;;;;5075094;28;20056;-77
2022/06/30 05:52:56;;;;;;;21.40;19.02;;;25.90;92.20;;;;;;5057196;28;20386;-71
2022/06/30 05:55:22;;;;;;;21.50;19.50;;;25.90;90.70;;;;;;5075091;28;20025;-77
2022/06/30 05:57:52;;;;;;;21.48;19.33;;;26.00;92.70;;;;;;5073899;28;20037;-71
2022/06/30 06:00:20;;;;;;;21.92;19.80;;;26.20;92.60;;;;;;5055147;28;20032;-77
2022/06/30 06:02:45;;;;;;;21.20;19.13;;;26.20;89.40;;;;;;5057127;28;20123;-71
2022/06/30 06:05:11;;;;;;;21.25;19.10;;;26.30;87.20;;;;;;5053910;28;20056;-77
2022/06/30 06:07:37;;;;;;;22.25;18.83;;;26.40;86.00;;;;;;5054950;28;20113;-70
2022/06/30 06:10:03;;;;;;;22.67;20.45;;;26.50;87.00;;;;;;5049609;28;20068;-77
2022/06/30 06:12:29;;;;;;;21.33;19.23;;;26.70;87.50;;;;;;5074930;28;20024;-70
2022/06/30 06:14:55;;;;;;;21.88;19.42;;;26.80;87.10;;;;;;5074285;28;20021;-77
2022/06/30 06:17:20;;;;;;;21.83;19.70;;;26.90;85.20;;;;;;5074659;28;20025;-77
2022/06/30 06:19:46;;;;;;;21.55;19.50;;;26.80;82.40;;;;;;5074661;28;20048;-77
2022/06/30 06:22:12;;;;;;;21.80;19.70;;;26.80;82.90;;;;;;5047348;28;20021;-77
2022/06/30 06:24:37;;;;;;;21.55;19.48;;;26.90;84.80;;;;;;5073343;28;20048;-71
2022/06/30 06:27:03;;;;;;;22.23;19.60;;;26.90;85.10;;;;;;5073527;28;20032;-78
2022/06/30 06:29:29;;;;;;;22.02;19.73;;;26.90;84.50;;;;;;5055541;28;20455;-72
2022/06/30 06:31:55;;;;;;;21.58;19.17;;;27.00;83.00;;;;;;5073193;28;20208;-78
2022/06/30 06:34:21;;;;;;;21.90;19.65;;;27.20;82.80;;;;;;5054773;28;20033;-71
2022/06/30 06:36:47;;;;;;;26.15;23.55;;;27.20;81.80;;;;;;5056911;28;20548;-77
2022/06/30 06:39:12;;;;;;;22.48;20.13;;;27.10;81.30;;;;;;5053090;28;20040;-77
2022/06/30 06:41:38;;;;;;;20.25;18.20;;;27.10;79.50;;;;;;5053388;28;20025;-78
2022/06/30 06:44:04;;;;;;;20.63;18.52;;;27.30;78.30;;;;;;5052623;28;20500;-71
2022/06/30 06:46:30;;;;;;;20.85;18.83;;;27.40;81.00;;;;;;5052448;28;20112;-78
2022/06/30 06:48:59;;;;;;;22.52;20.05;;;27.70;80.20;;;;;;5053975;28;20100;-72
2022/06/30 06:51:26;;;;;;;21.08;19.23;;;27.70;78.60;;;;;;5052682;28;20449;-77
2022/06/30 06:53:52;;;;;;;21.08;18.95;;;27.70;78.00;;;;;;5053924;28;20032;-72
2022/06/30 06:56:18;;;;;;;21.40;19.40;;;27.80;79.30;;;;;;5051814;28;20017;-72
2022/06/30 06:58:44;;;;;;;22.45;20.30;;;27.80;79.80;;;;;;5052736;28;20494;-71
2022/06/30 07:01:10;;;;;;;22.33;19.67;;;28.00;79.80;;;;;;5054046;28;20025;-71
2022/06/30 07:03:36;;;;;;;24.55;19.92;;;28.10;77.50;;;;;;5054222;28;20112;-71
2022/06/30 07:06:02;;;;;;;20.73;18.70;;;28.10;77.10;;;;;;5063498;28;20840;-71
2022/06/30 07:08:28;;;;;;;21.45;19.40;;;28.00;79.00;;;;;;5073989;28;20027;-72
2022/06/30 07:10:56;;;;;;;21.35;19.35;;;28.20;78.40;;;;;;5053873;28;20025;-78
2022/06/30 07:13:25;;;;;;;21.65;19.45;;;28.40;77.00;;;;;;5053654;28;20028;-78
2022/06/30 07:15:52;;;;;;;22.45;18.50;;;28.60;74.00;;;;;;5035891;28;20017;-77
2022/06/30 07:18:18;;;;;;;22.63;18.90;;;28.60;72.20;;;;;;5053686;28;20037;-77
2022/06/30 07:20:44;;;;;;;20.98;18.90;;;28.70;73.40;;;;;;5035841;28;20430;-77
2022/06/30 07:23:09;;;;;;;20.27;18.20;;;29.00;74.50;;;;;;5053668;28;20021;-78
2022/06/30 07:25:35;;;;;;;20.67;18.52;;;29.10;73.70;;;;;;5053623;28;20033;-71
2022/06/30 07:28:02;;;;;;;20.67;18.63;;;29.30;71.40;;;;;;5053737;28;20031;-71
2022/06/30 07:30:28;;;;;;;20.85;18.85;;;29.40;71.20;;;;;;5035822;28;20065;-77
2022/06/30 07:32:54;;;;;;;22.10;19.80;;;29.30;70.90;;;;;;5053583;28;20029;-70
2022/06/30 07:35:19;;;;;;;21.05;19.15;;;29.10;71.00;;;;;;5035652;28;20024;-71
2022/06/30 07:37:45;;;;;;;20.73;18.50;;;29.00;72.40;;;;;;5053479;28;20043;-72
2022/06/30 07:40:12;;;;;;;20.50;18.35;;;29.10;71.80;;;;;;5053599;28;20036;-71
2022/06/30 07:42:38;;;;;;;20.00;17.48;;;29.30;70.10;;;;;;5035441;28;20055;-77
2022/06/30 07:45:05;;;;;;;19.33;17.25;;;29.40;69.60;;;;;;5053309;28;20056;-74
2022/06/30 07:47:31;;;;;;;19.92;18.00;;;29.40;69.20;;;;;;5040770;28;20506;-71
2022/06/30 07:49:57;;;;;;;20.67;18.23;;;29.50;69.50;;;;;;5063058;28;20063;-71
2022/06/30 07:52:22;;;;;;;20.15;18.13;;;29.60;68.60;;;;;;5054118;28;20020;-71
2022/06/30 07:54:51;;;;;;;19.63;17.83;;;29.80;68.10;;;;;;5071308;28;20379;-77
2022/06/30 07:57:20;;;;;;;21.17;19.00;;;29.90;69.10;;;;;;5071761;28;20025;-77
2022/06/30 07:59:46;;;;;;;20.60;18.40;;;30.10;68.60;;;;;;5070757;28;20052;-70
2022/06/30 08:02:12;;;;;;;19.50;17.77;;;30.20;68.00;;;;;;5054210;28;20024;-77
2022/06/30 08:04:39;;;;;;;19.45;17.60;;;30.30;66.00;;;;;;5070130;28;20031;-70
2022/06/30 08:07:05;;;;;;;21.88;17.60;;;30.30;66.80;;;;;;5065352;28;20286;-78
2022/06/30 08:09:33;;;;;;;18.98;17.17;;;30.50;66.90;;;;;;5068056;28;20513;-77
2022/06/30 08:11:59;;;;;;;18.27;16.40;;;30.30;64.40;;;;;;5045765;28;20545;-77
2022/06/30 08:14:25;;;;;;;17.85;16.17;;;30.50;64.80;;;;;;5071559;28;20174;-77
2022/06/30 08:16:50;;;;;;;17.60;15.93;;;30.40;64.80;;;;;;5048285;28;20449;-77
2022/06/30 08:19:19;;;;;;;18.33;16.30;;;30.60;64.30;;;;;;5052506;28;20049;-77
2022/06/30 08:21:46;;;;;;;16.95;15.48;;;30.60;61.50;;;;;;5042021;28;20440;-76
2022/06/30 08:24:11;;;;;;;17.27;15.52;;;30.70;62.50;;;;;;5070933;28;20104;-77
2022/06/30 08:26:37;;;;;;;19.05;17.08;;;30.90;60.70;;;;;;5071637;28;20476;-76
2022/06/30 08:29:03;;;;;;;18.45;16.67;;;31.00;62.20;;;;;;5071600;28;20032;-77
2022/06/30 08:31:29;;;;;;;18.23;16.42;;;31.10;60.90;;;;;;5069965;28;20033;-76
2022/06/30 08:33:56;;;;;;;18.42;16.50;;;31.20;59.60;;;;;;5072000;28;20070;-76
2022/06/30 08:36:22;;;;;;;18.35;16.67;;;31.30;60.30;;;;;;5070920;28;20039;-70
2022/06/30 08:38:48;;;;;;;20.02;16.92;;;31.30;59.60;;;;;;5073260;28;20120;-70
2022/06/30 08:44:00;;;;;;;21.38;19.13;;;31.60;59.20;;;;;;5076864;28;20040;-71
2022/06/30 08:46:27;;;;;;;20.10;18.20;;;31.70;59.40;;;;;;5076739;28;20028;-70
2022/06/30 08:48:53;;;;;;;20.17;18.20;;;31.70;59.00;;;;;;5075884;28;20028;-76
2022/06/30 08:51:20;;;;;;;19.48;17.58;;;31.60;59.30;;;;;;5076328;28;20044;-77
2022/06/30 08:53:50;;;;;;;19.50;17.08;;;31.80;59.50;;;;;;5076208;28;20033;-77
2022/06/30 08:56:16;;;;;;;19.08;17.27;;;31.60;58.20;;;;;;5075452;28;20028;-77
2022/06/30 08:58:44;;;;;;;18.98;17.00;;;31.50;58.60;;;;;;5076459;28;20042;-77
2022/06/30 09:01:10;;;;;;;15.23;13.63;;;31.60;57.90;;;;;;5076558;28;20043;-70
2022/06/30 09:03:38;;;;;;;15.02;13.63;;;31.80;55.20;;;;;;5076273;28;20024;-77
2022/06/30 09:06:05;;;;;;;15.05;13.55;;;32.10;55.10;;;;;;5065428;28;20053;-77
2022/06/30 09:08:30;;;;;;;15.85;14.45;;;32.30;55.10;;;;;;5039122;28;20491;-76
2022/06/30 09:10:56;;;;;;;16.17;14.48;;;32.40;55.00;;;;;;5076284;28;20036;-76
2022/06/30 09:13:23;;;;;;;18.50;15.00;;;32.50;53.30;;;;;;5076058;28;20386;-76
2022/06/30 09:15:50;;;;;;;16.90;15.20;;;32.50;53.30;;;;;;5076209;28;20166;-70
2022/06/30 09:18:27;;;;;;;16.73;14.75;;;32.50;54.30;;;;;;5075963;28;20047;-70
2022/06/30 09:20:54;;;;;;;16.27;14.82;;;32.70;53.90;;;;;;5075906;28;20025;-77
2022/06/30 09:23:23;;;;;;;16.45;14.88;;;32.80;53.80;;;;;;5076098;28;20027;-70
2022/06/30 09:25:52;;;;;;;15.75;14.25;;;32.80;52.10;;;;;;5076071;28;20032;-76
2022/06/30 09:28:42;;;;;;;15.18;13.63;;;32.80;52.50;;;;;;5075829;28;20024;-69
2022/06/30 09:31:09;;;;;;;15.20;13.88;;;33.10;53.40;;;;;;5058008;28;20028;-69
2022/06/30 09:33:36;;;;;;;15.85;13.32;;;33.10;52.10;;;;;;5075149;28;20152;-69
2022/06/30 09:36:22;;;;;;;15.40;13.93;;;33.00;51.60;;;;;;5075744;28;20024;-70
2022/06/30 09:39:06;;;;;;;15.55;14.15;;;33.10;52.70;;;;;;5070585;28;20025;-77
2022/06/30 09:41:34;;;;;;;16.50;15.00;;;33.40;51.90;;;;;;5064404;28;20025;-77
2022/06/30 09:44:00;;;;;;;15.05;13.65;;;33.20;50.20;;;;;;5055064;28;20076;-70
2022/06/30 09:46:26;;;;;;;14.90;13.55;;;33.10;50.90;;;;;;5060352;28;20431;-69
2022/06/30 09:48:51;;;;;;;14.13;12.82;;;33.20;52.50;;;;;;5053983;28;20118;-71
2022/06/30 09:51:18;;;;;;;14.43;13.23;;;33.40;50.10;;;;;;5057550;28;20025;-69
2022/06/30 09:54:07;;;;;;;14.85;13.35;;;33.50;50.30;;;;;;5037122;28;20033;-70
2022/06/30 09:56:33;;;;;;;13.82;12.70;;;33.50;49.90;;;;;;5055149;28;20021;-70
2022/06/30 09:58:59;;;;;;;14.82;13.35;;;33.70;49.50;;;;;;5054970;28;20110;-77
2022/06/30 10:01:25;;;;;;;15.55;13.95;;;33.80;50.10;;;;;;5058896;28;20451;-69
2022/06/30 10:03:59;;;;;;;15.30;13.80;;;33.60;50.60;;;;;;5074876;28;20024;-69
2022/06/30 10:06:26;;;;;;;14.18;12.95;;;33.40;49.50;;;;;;5074688;28;20106;-73
2022/06/30 10:08:54;;;;;;;14.80;13.48;;;33.40;51.30;;;;;;5071629;28;20074;-77
2022/06/30 10:11:20;;;;;;;15.05;13.55;;;33.00;51.80;;;;;;5054578;28;20044;-77
2022/06/30 10:13:48;;;;;;;14.45;13.18;;;33.00;51.50;;;;;;5073299;28;20071;-77
2022/06/30 10:16:16;;;;;;;14.82;13.43;;;32.80;51.10;;;;;;5056559;28;20024;-77
2022/06/30 10:18:42;;;;;;;14.60;13.15;;;32.70;51.30;;;;;;5074519;28;20068;-78
2022/06/30 10:21:10;;;;;;;16.13;13.60;;;32.50;51.90;;;;;;5056426;28;20055;-77
2022/06/30 10:23:37;;;;;;;15.13;13.60;;;32.40;52.20;;;;;;5074359;28;20031;-77
2022/06/30 10:26:04;;;;;;;13.88;12.48;;;32.30;53.20;;;;;;5074404;28;20401;-73
2022/06/30 10:28:30;;;;;;;14.02;12.82;;;32.40;53.30;;;;;;5074380;28;20012;-69
2022/06/30 10:31:13;;;;;;;14.23;12.85;;;32.70;54.80;;;;;;5055940;28;20035;-69
2022/06/30 10:34:09;;;;;;;13.43;12.02;;;32.80;53.10;;;;;;5044287;28;20029;-69
2022/06/30 10:36:50;;;;;;;12.73;11.48;;;32.80;53.40;;;;;;5063484;28;20024;-77
2022/06/30 10:39:34;;;;;;;12.32;11.25;;;32.80;52.80;;;;;;5063574;28;20048;-78
2022/06/30 10:42:00;;;;;;;13.48;12.20;;;32.80;51.00;;;;;;5059529;28;20013;-77
2022/06/30 10:44:27;;;;;;;13.20;12.00;;;33.10;52.30;;;;;;5053976;28;20402;-69
2022/06/30 10:46:55;;;;;;;13.13;11.88;;;33.00;52.60;;;;;;5054073;28;20113;-69
2022/06/30 10:49:24;;;;;;;14.73;12.30;;;33.00;53.00;;;;;;5054137;28;20033;-78
2022/06/30 10:51:50;;;;;;;11.55;10.18;;;33.20;53.80;;;;;;5065352;28;20013;-68
2022/06/30 10:54:33;;;;;;;10.73;9.73;;;33.00;52.10;;;;;;5069227;28;20036;-77
2022/06/30 10:57:00;;;;;;;10.98;10.05;;;32.90;52.10;;;;;;5063941;28;20024;-69
2022/06/30 10:59:26;;;;;;;10.18;9.32;;;32.90;51.00;;;;;;5062378;28;20029;-77
2022/06/30 11:02:10;;;;;;;9.77;8.82;;;32.80;51.40;;;;;;5063587;28;20012;-76
2022/06/30 11:04:42;;;;;;;10.75;9.75;;;32.70;48.60;;;;;;5053614;28;20025;-70
2022/06/30 11:07:12;;;;;;;10.18;9.18;;;32.80;50.70;;;;;;5036568;28;20514;-69
2022/06/30 11:09:44;;;;;;;10.38;9.43;;;32.70;49.90;;;;;;5062730;28;20040;-70
2022/06/30 11:12:36;;;;;;;9.52;8.63;;;32.70;52.50;;;;;;5053735;28;20052;-71
2022/06/30 11:15:03;;;;;;;8.43;7.63;;;32.90;51.80;;;;;;5044739;28;20041;-69
2022/06/30 11:17:30;;;;;;;8.55;7.70;;;32.90;48.00;;;;;;5053549;28;20521;-70
2022/06/30 11:20:13;;;;;;;8.52;7.70;;;33.10;48.00;;;;;;5053110;28;20057;-77
2022/06/30 11:22:40;;;;;;;9.63;8.75;;;33.10;49.20;;;;;;5053466;28;20542;-77
2022/06/30 11:27:17;;;;;;;8.80;8.00;;;33.30;49.70;;;;;;5053139;28;20029;-77
2022/06/30 11:27:57;;;;;;;;;;;33.70;51.00;;;;;;5053628;28;20483;-77
2022/06/30 11:30:29;;;;;;;8.77;7.90;;;33.90;48.20;;;;;;5052947;28;19937;-78
2022/06/30 11:32:55;;;;;;;;;;;34.00;48.60;;;;;;5053591;28;20021;-77
2022/06/30 11:35:26;;;;;;;8.38;7.50;;;33.60;48.50;;;;;;5053051;28;19908;-77
2022/06/30 11:37:51;;;;;;;10.25;9.00;;;33.20;48.40;;;;;;5053066;28;20368;-77
2022/06/30 11:40:17;;;;;;;9.23;8.10;;;33.10;50.00;;;;;;5053095;28;20031;-69
2022/06/30 11:42:43;;;;;;;8.80;7.95;;;33.30;50.50;;;;;;5035146;28;20017;-71
2022/06/30 11:45:25;;;;;;;11.00;8.48;;;33.20;49.30;;;;;;5052924;28;20064;-69
2022/06/30 11:47:56;;;;;;;10.95;7.97;;;33.20;49.40;;;;;;5071743;28;20029;-77
2022/06/30 11:50:23;;;;;;;7.88;7.15;;;33.20;49.30;;;;;;5071994;28;20012;-69
2022/06/30 11:52:55;;;;;;;9.57;7.57;;;33.30;49.30;;;;;;5072578;28;20130;-69
2022/06/30 11:55:24;;;;;;;;;;;33.50;49.40;;;;;;5073171;28;20071;-69
2022/06/30 11:57:50;;;;;;;7.90;5.75;;;33.70;49.00;;;;;;5072853;28;19905;-69
2022/06/30 12:00:21;;;;;;;7.47;6.75;;;34.00;46.20;;;;;;5072340;28;20486;-69
2022/06/30 12:02:48;;;;;;;;;;;34.20;44.10;;;;;;5073429;28;20508;-70
2022/06/30 12:05:17;;;;;;;9.32;8.43;;;34.40;42.90;;;;;;5049756;28;19904;-69
2022/06/30 12:07:44;;;;;;;6.50;5.55;;;34.60;46.00;;;;;;5034403;28;20471;-77
2022/06/30 12:10:12;;;;;;;9.45;7.75;;;34.80;42.30;;;;;;5066470;28;20109;-69
2022/06/30 12:12:39;;;;;;;6.95;4.85;;;34.80;45.30;;;;;;5072025;28;20466;-78
2022/06/30 12:15:07;;;;;;;6.22;5.45;;;35.10;40.30;;;;;;5075118;28;20478;-71
2022/06/30 12:17:39;;;;;;;7.78;7.13;;;35.00;38.70;;;;;;5074944;28;20062;-78
2022/06/30 12:20:08;;;;;;;6.28;5.68;;;35.00;41.10;;;;;;5074966;28;20028;-69
2022/06/30 12:22:34;;;;;;;6.05;5.55;;;34.90;40.50;;;;;;5073501;28;20025;-69
2022/06/30 12:25:00;;;;;;;6.20;5.63;;;34.70;40.60;;;;;;5073990;28;20032;-69
2022/06/30 12:27:39;;;;;;;6.38;5.80;;;34.80;40.10;;;;;;5076603;28;20410;-77
2022/06/30 12:30:08;;;;;;;9.07;6.00;;;34.70;40.00;;;;;;5077054;28;20103;-70
2022/06/30 12:32:34;;;;;;;7.03;6.45;;;34.70;41.50;;;;;;5076871;28;20047;-77
2022/06/30 12:35:02;;;;;;;9.05;8.20;;;34.70;43.40;;;;;;5076763;28;20020;-78
2022/06/30 12:37:42;;;;;;;9.55;8.45;;;34.60;44.50;;;;;;5076725;28;20391;-77
2022/06/30 12:40:11;;;;;;;9.63;7.65;;;34.40;45.00;;;;;;5076842;28;20029;-78
2022/06/30 12:42:48;;;;;;;9.25;8.20;;;34.30;47.00;;;;;;5076168;28;20051;-70